createdAt,value
2023-02-25T00:01:08.755Z,99432.16
2023-02-25T00:03:36.479Z,99676.16
2023-02-25T00:06:04.074Z,99629.91
2023-02-25T00:08:31.035Z,99539.13
2023-02-25T00:11:05.834Z,99600.00
2023-02-25T00:13:32.885Z,99650.22
2023-02-25T00:15:59.631Z,99649.13
2023-02-25T00:18:31.255Z,99644.72
2023-02-25T00:20:58.609Z,99649.72
2023-02-25T00:23:25.503Z,99617.00
2023-02-25T00:26:00.009Z,99624.41
2023-02-25T00:28:26.903Z,99686.88
2023-02-25T00:30:53.959Z,99681.63
2023-02-25T00:33:20.977Z,99627.56
2023-02-25T00:35:50.132Z,99662.53
2023-02-25T00:38:18.389Z,99666.41
2023-02-25T00:40:45.166Z,99683.38
2023-02-25T00:43:12.148Z,99665.09
2023-02-25T00:45:40.698Z,99664.78
2023-02-25T00:48:07.973Z,99606.06
2023-02-25T00:50:35.376Z,99633.78
2023-02-25T00:53:02.486Z,99669.03
2023-02-25T00:55:33.764Z,99662.66
2023-02-25T00:58:01.511Z,99626.34
2023-02-25T01:00:29.364Z,99610.56
2023-02-25T01:02:58.185Z,99611.41
2023-02-25T01:05:25.052Z,99652.69
2023-02-25T01:07:52.285Z,99587.25
2023-02-25T01:10:19.210Z,99632.69
2023-02-25T01:12:46.090Z,99600.28
2023-02-25T01:15:13.609Z,99651.56
2023-02-25T01:17:40.445Z,99646.06
2023-02-25T01:20:11.601Z,99603.41
2023-02-25T01:22:41.998Z,99526.94
2023-02-25T01:25:13.541Z,99636.09
2023-02-25T01:27:40.338Z,99642.22
2023-02-25T01:30:07.846Z,99633.91
2023-02-25T01:32:34.681Z,99617.84
2023-02-25T01:35:01.510Z,99640.84
2023-02-25T01:37:28.512Z,99502.56
2023-02-25T01:39:55.527Z,99638.38
2023-02-25T01:42:22.579Z,99630.59
2023-02-25T01:45:17.953Z,99626.16
2023-02-25T01:48:12.644Z,99624.22
2023-02-25T01:50:43.335Z,99576.28
2023-02-25T01:53:10.312Z,99625.38
2023-02-25T01:55:38.056Z,99566.88
2023-02-25T01:58:04.942Z,99575.81
2023-02-25T02:00:32.097Z,99587.44
2023-02-25T02:02:59.007Z,99554.72
2023-02-25T02:05:28.362Z,99509.56
2023-02-25T02:07:55.115Z,99592.72
2023-02-25T02:10:21.833Z,99548.63
2023-02-25T02:12:48.764Z,99463.28
2023-02-25T02:15:15.690Z,99580.25
2023-02-25T02:17:57.213Z,99568.91
2023-02-25T02:20:31.416Z,99580.28
2023-02-25T02:23:08.835Z,99599.91
2023-02-25T02:25:54.366Z,99601.88
2023-02-25T02:28:32.834Z,99594.09
2023-02-25T02:31:27.086Z,99586.31
2023-02-25T02:34:06.470Z,99583.28
2023-02-25T02:36:39.400Z,99583.03
2023-02-25T02:39:24.755Z,99577.19
2023-02-25T02:42:38.631Z,99571.09
2023-02-25T02:45:29.917Z,99548.63
2023-02-25T02:48:02.486Z,99570.53
2023-02-25T02:50:40.925Z,99568.00
2023-02-25T02:53:11.621Z,99519.25
2023-02-25T02:55:51.261Z,99496.25
2023-02-25T02:58:27.710Z,99526.44
2023-02-25T03:00:59.652Z,99492.63
2023-02-25T03:03:41.893Z,99561.63
2023-02-25T03:06:12.575Z,99551.34
2023-02-25T03:08:45.079Z,99541.38
2023-02-25T03:11:12.475Z,99544.97
2023-02-25T03:13:39.477Z,99536.38
2023-02-25T03:16:07.820Z,99514.75
2023-02-25T03:18:39.170Z,99500.31
2023-02-25T03:21:10.732Z,99524.44
2023-02-25T03:23:37.482Z,99547.16
2023-02-25T03:26:12.120Z,99529.63
2023-02-25T03:28:39.048Z,99502.75
2023-02-25T03:31:30.910Z,99481.41
2023-02-25T03:34:08.767Z,99497.47
2023-02-25T03:36:39.970Z,99536.81
2023-02-25T03:39:15.670Z,99544.28
2023-02-25T03:41:44.917Z,99529.84
2023-02-25T03:44:15.316Z,99530.66
2023-02-25T03:46:43.626Z,99524.78
2023-02-25T03:49:12.270Z,99528.38
2023-02-25T03:51:40.227Z,99492.94
2023-02-25T03:54:07.623Z,99523.09
2023-02-25T03:56:44.420Z,99487.66
2023-02-25T03:59:11.319Z,99463.84
2023-02-25T04:01:38.272Z,99520.06
2023-02-25T04:04:05.262Z,99477.09
2023-02-25T04:06:32.283Z,99466.06
2023-02-25T04:08:59.128Z,99516.75
2023-02-25T04:11:25.935Z,99383.31
2023-02-25T04:13:52.812Z,99511.84
2023-02-25T04:16:19.668Z,99515.75
2023-02-25T04:18:46.492Z,99439.88
2023-02-25T04:21:28.389Z,99455.94
2023-02-25T04:23:55.173Z,99480.06
2023-02-25T04:26:22.273Z,99492.81
2023-02-25T04:28:49.359Z,99476.47
2023-02-25T04:31:16.201Z,99475.41
2023-02-25T04:33:44.251Z,99507.28
2023-02-25T04:36:27.597Z,99495.38
2023-02-25T04:38:54.490Z,99487.63
2023-02-25T04:41:21.733Z,99471.88
2023-02-25T04:43:48.524Z,99494.31
2023-02-25T04:46:15.394Z,99498.75
2023-02-25T04:48:42.279Z,99498.78
2023-02-25T04:51:09.651Z,99316.75
2023-02-25T04:53:36.514Z,99489.91
2023-02-25T04:56:04.936Z,99450.28
2023-02-25T04:58:32.511Z,99484.34
2023-02-25T05:01:00.821Z,99476.03
2023-02-25T05:03:28.700Z,99481.56
2023-02-25T05:05:55.716Z,99470.22
2023-02-25T05:08:22.877Z,99486.00
2023-02-25T05:10:50.039Z,99492.41
2023-02-25T05:13:17.011Z,99472.16
2023-02-25T05:15:43.931Z,99481.03
2023-02-25T05:18:10.872Z,99486.56
2023-02-25T05:20:46.673Z,99421.72
2023-02-25T05:23:13.851Z,99431.69
2023-02-25T05:25:43.322Z,99439.72
2023-02-25T05:28:11.080Z,99466.28
2023-02-25T05:30:38.315Z,99449.66
2023-02-25T05:33:05.961Z,99435.56
2023-02-25T05:35:32.990Z,99460.47
2023-02-25T05:38:00.126Z,99468.22
2023-02-25T05:40:27.095Z,99435.81
2023-02-25T05:42:53.942Z,99479.91
2023-02-25T05:45:21.023Z,99377.41
2023-02-25T05:47:48.069Z,99483.19
2023-02-25T05:50:14.862Z,99456.59
2023-02-25T05:52:42.409Z,99432.22
2023-02-25T05:55:09.900Z,99450.75
2023-02-25T05:57:37.000Z,99392.91
2023-02-25T06:00:06.294Z,99447.13
2023-02-25T06:02:33.676Z,99480.38
2023-02-25T06:05:00.414Z,99445.44
2023-02-25T06:07:31.036Z,99468.75
2023-02-25T06:10:01.034Z,99441.31
2023-02-25T06:12:32.393Z,99469.03
2023-02-25T06:14:59.491Z,99436.63
2023-02-25T06:17:26.362Z,99439.66
2023-02-25T06:19:53.540Z,99459.28
2023-02-25T06:22:20.927Z,99353.00
2023-02-25T06:24:47.819Z,99454.34
2023-02-25T06:27:14.875Z,99401.72
2023-02-25T06:29:41.848Z,99426.09
2023-02-25T06:32:10.548Z,99418.91
2023-02-25T06:34:38.248Z,99465.97
2023-02-25T06:37:05.006Z,99423.84
2023-02-25T06:39:31.914Z,99390.91
2023-02-25T06:41:58.811Z,99418.91
2023-02-25T06:44:27.238Z,99462.03
2023-02-25T06:46:55.809Z,99450.13
2023-02-25T06:49:23.306Z,99438.13
2023-02-25T06:51:50.169Z,99461.94
2023-02-25T06:54:17.623Z,99445.03
2023-02-25T06:56:44.526Z,99427.03
2023-02-25T06:59:11.252Z,99472.69
2023-02-25T07:01:38.068Z,99480.75
2023-02-25T07:04:05.277Z,99448.88
2023-02-25T07:06:32.197Z,99435.88
2023-02-25T07:08:58.992Z,99433.09
2023-02-25T07:11:25.854Z,99491.19
2023-02-25T07:13:52.577Z,99455.69
2023-02-25T07:16:19.605Z,99443.22
2023-02-25T07:18:46.998Z,99456.72
2023-02-25T07:21:13.938Z,99496.00
2023-02-25T07:23:41.163Z,99486.06
2023-02-25T07:26:09.260Z,99508.75
2023-02-25T07:28:36.178Z,99506.22
2023-02-25T07:31:04.194Z,99502.56
2023-02-25T07:33:31.153Z,99511.97
2023-02-25T07:35:58.029Z,99481.53
2023-02-25T07:38:25.020Z,99454.94
2023-02-25T07:40:51.877Z,99472.44
2023-02-25T07:43:18.714Z,99468.81
2023-02-25T07:45:45.703Z,99499.84
2023-02-25T07:48:13.001Z,99499.84
2023-02-25T07:50:39.816Z,99487.75
2023-02-25T07:53:06.622Z,99503.59
2023-02-25T07:55:33.646Z,99489.56
2023-02-25T07:58:00.430Z,99509.56
2023-02-25T08:00:28.005Z,99496.91
2023-02-25T08:02:55.355Z,99507.41
2023-02-25T08:05:24.368Z,99505.22
2023-02-25T08:07:51.333Z,99477.00
2023-02-25T08:10:18.422Z,99473.41
2023-02-25T08:12:45.206Z,99501.91
2023-02-25T08:15:12.066Z,99505.81
2023-02-25T08:17:38.975Z,99504.72
2023-02-25T08:20:06.396Z,99450.44
2023-02-25T08:22:33.168Z,99507.50
2023-02-25T08:25:00.007Z,99467.06
2023-02-25T08:27:26.900Z,99496.97
2023-02-25T08:29:53.835Z,99497.56
2023-02-25T08:32:20.762Z,99379.00
2023-02-25T08:34:48.913Z,99427.75
2023-02-25T08:37:16.107Z,99456.56
2023-02-25T08:39:43.199Z,99504.50
2023-02-25T08:42:11.908Z,99523.69
2023-02-25T08:44:38.732Z,99503.16
2023-02-25T08:47:05.625Z,99515.63
2023-02-25T08:49:32.407Z,99494.31
2023-02-25T08:51:59.246Z,99477.97
2023-02-25T08:54:26.142Z,99478.81
2023-02-25T08:56:55.609Z,99405.97
2023-02-25T08:59:22.558Z,99380.47
2023-02-25T09:01:50.561Z,99458.88
2023-02-25T09:04:19.285Z,99449.75
2023-02-25T09:06:48.773Z,99486.34
2023-02-25T09:09:16.554Z,99465.28
2023-02-25T09:11:43.728Z,99414.53
2023-02-25T09:14:10.761Z,99440.88
2023-02-25T09:16:37.737Z,99476.09
2023-02-25T09:19:04.661Z,99387.94
2023-02-25T09:21:31.469Z,99449.47
2023-02-25T09:23:59.829Z,99457.50
2023-02-25T09:26:26.680Z,99474.13
2023-02-25T09:28:53.564Z,99456.09
2023-02-25T09:31:20.758Z,99485.47
2023-02-25T09:33:47.708Z,99482.41
2023-02-25T09:36:16.258Z,99484.09
2023-02-25T09:38:43.978Z,99488.75
2023-02-25T09:41:25.110Z,99486.25
2023-02-25T09:44:01.313Z,99464.91
2023-02-25T09:46:28.550Z,99460.44
2023-02-25T09:48:57.742Z,99454.34
2023-02-25T09:51:28.279Z,99490.09
2023-02-25T09:54:01.917Z,99483.16
2023-02-25T09:56:28.783Z,99496.44
2023-02-25T09:58:57.843Z,99498.91
2023-02-25T10:01:42.270Z,99506.63
2023-02-25T10:04:12.065Z,99507.41
2023-02-25T10:06:44.369Z,99466.38
2023-02-25T10:09:15.156Z,99507.88
2023-02-25T10:11:59.211Z,99501.69
2023-02-25T10:14:38.554Z,99507.88
2023-02-25T10:17:25.646Z,99497.06
2023-02-25T10:20:20.266Z,99509.50
2023-02-25T10:22:52.049Z,99508.38
2023-02-25T10:25:24.304Z,99465.19
2023-02-25T10:27:52.599Z,99467.91
2023-02-25T10:30:23.370Z,99505.53
2023-02-25T10:32:50.248Z,99498.59
2023-02-25T10:35:29.110Z,99443.78
2023-02-25T10:37:56.120Z,99466.19
2023-02-25T10:40:24.614Z,99497.13
2023-02-25T10:42:54.522Z,99429.00
2023-02-25T10:45:23.820Z,99487.00
2023-02-25T10:47:56.202Z,99486.47
2023-02-25T10:50:42.829Z,99433.88
2023-02-25T10:53:16.706Z,99472.56
2023-02-25T10:55:43.467Z,99468.66
2023-02-25T10:58:44.667Z,99477.28
2023-02-25T11:01:11.421Z,99477.88
2023-02-25T11:03:44.906Z,99439.41
2023-02-25T11:06:20.304Z,99471.16
2023-02-25T11:08:47.994Z,99468.84
2023-02-25T11:11:19.728Z,99469.56
2023-02-25T11:14:00.156Z,99425.44
2023-02-25T11:16:27.010Z,99438.91
2023-02-25T11:18:58.724Z,99453.47
2023-02-25T11:21:43.850Z,99368.66
2023-02-25T11:24:37.742Z,99410.47
2023-02-25T11:27:06.515Z,99439.66
2023-02-25T11:29:34.658Z,99452.47
2023-02-25T11:32:08.450Z,99404.03
2023-02-25T11:34:35.329Z,99422.03
2023-02-25T11:37:43.319Z,99447.63
2023-02-25T11:40:32.367Z,99433.31
2023-02-25T11:43:05.190Z,99445.81
2023-02-25T11:45:37.967Z,99428.88
2023-02-25T11:48:05.977Z,99405.38
2023-02-25T11:50:54.080Z,99434.56
2023-02-25T11:53:48.479Z,99434.13
2023-02-25T11:56:48.824Z,99429.53
2023-02-25T11:59:39.987Z,99419.69
2023-02-25T12:02:15.910Z,99410.16
2023-02-25T12:05:13.719Z,99407.31
2023-02-25T12:08:12.386Z,99419.41
2023-02-25T12:10:56.020Z,99415.03
2023-02-25T12:13:31.527Z,99411.66
2023-02-25T12:16:23.201Z,99404.19
2023-02-25T12:19:14.503Z,99410.91
2023-02-25T12:22:13.007Z,99317.91
2023-02-25T12:24:54.550Z,99411.34
2023-02-25T12:27:59.122Z,99408.53
2023-02-25T12:30:47.906Z,99410.03
2023-02-25T12:33:17.502Z,99404.72
2023-02-25T12:35:44.410Z,99407.44
2023-02-25T12:38:31.784Z,99398.47
2023-02-25T12:41:47.991Z,99396.56
2023-02-25T12:44:22.507Z,99358.41
2023-02-25T12:47:10.914Z,99390.28
2023-02-25T12:50:08.922Z,99386.75
2023-02-25T12:53:10.946Z,99381.16
2023-02-25T12:55:46.766Z,99373.94
2023-02-25T12:58:44.597Z,99384.28
2023-02-25T13:01:22.558Z,99380.97
2023-02-25T13:04:09.459Z,99347.81
2023-02-25T13:06:58.160Z,99377.06
2023-02-25T13:10:15.919Z,99378.69
2023-02-25T13:12:58.447Z,99316.56
2023-02-25T13:15:46.844Z,99366.28
2023-02-25T13:18:37.911Z,99355.28
2023-02-25T13:21:04.555Z,99362.53
2023-02-25T13:24:09.434Z,99351.34
2023-02-25T13:26:51.583Z,99348.53
2023-02-25T13:29:43.766Z,99349.06
2023-02-25T13:32:14.603Z,99335.53
2023-02-25T13:35:07.334Z,99330.22
2023-02-25T13:37:38.114Z,99345.63
2023-02-25T13:40:14.045Z,99342.53
2023-02-25T13:42:49.916Z,99338.91
2023-02-25T13:45:31.633Z,99330.53
2023-02-25T13:48:21.621Z,99330.19
2023-02-25T13:51:22.220Z,99323.16
2023-02-25T13:54:30.344Z,99295.06
2023-02-25T13:57:32.408Z,99326.03
2023-02-25T14:00:26.595Z,99323.91
2023-02-25T14:02:59.247Z,99324.22
2023-02-25T14:05:37.893Z,99322.88
2023-02-25T14:08:10.766Z,99320.69
2023-02-25T14:11:09.492Z,99299.03
2023-02-25T14:13:42.944Z,99296.34
2023-02-25T14:16:23.867Z,99311.63
2023-02-25T14:19:29.482Z,99289.44
2023-02-25T14:22:30.655Z,99276.31
2023-02-25T14:25:03.082Z,99315.47
2023-02-25T14:27:42.888Z,99325.03
2023-02-25T14:30:12.599Z,99306.28
2023-02-25T14:32:49.404Z,99307.72
2023-02-25T14:35:47.018Z,99319.72
2023-02-25T14:38:15.853Z,99307.53
2023-02-25T14:40:44.194Z,99324.50
2023-02-25T14:43:33.345Z,99317.75
2023-02-25T14:46:00.085Z,99314.13
2023-02-25T14:48:51.812Z,99310.53
2023-02-25T14:51:30.745Z,99312.16
2023-02-25T14:54:09.846Z,99317.47
2023-02-25T14:57:04.852Z,99314.13
2023-02-25T14:59:49.353Z,99317.38
2023-02-25T15:02:52.442Z,99318.94
2023-02-25T15:05:38.054Z,99322.91
2023-02-25T15:08:23.717Z,99316.53
2023-02-25T15:11:12.020Z,99323.44
2023-02-25T15:14:06.379Z,99322.81
2023-02-25T15:16:51.871Z,99330.91
2023-02-25T15:19:44.751Z,99330.44
2023-02-25T15:22:14.742Z,99321.06
2023-02-25T15:24:42.550Z,99306.03
2023-02-25T15:27:31.499Z,99330.88
2023-02-25T15:30:02.757Z,99321.94
2023-02-25T15:32:31.209Z,99322.25
2023-02-25T15:34:59.166Z,99332.09
2023-02-25T15:37:36.619Z,99281.00
2023-02-25T15:40:16.428Z,99326.28
2023-02-25T15:42:54.337Z,99324.31
2023-02-25T15:45:40.839Z,99292.06
2023-02-25T15:48:07.615Z,99325.75
2023-02-25T15:50:43.395Z,99325.47
2023-02-25T15:53:21.296Z,99324.94
2023-02-25T15:56:03.762Z,99324.13
2023-02-25T15:58:30.653Z,99333.91
2023-02-25T16:01:06.180Z,99324.94
2023-02-25T16:03:35.963Z,99339.41
2023-02-25T16:06:22.049Z,99272.59
2023-02-25T16:09:00.925Z,99339.00
2023-02-25T16:11:42.577Z,99345.09
2023-02-25T16:14:17.956Z,99349.16
2023-02-25T16:16:48.590Z,99346.50
2023-02-25T16:19:17.426Z,99347.13
2023-02-25T16:21:49.913Z,99355.91
2023-02-25T16:24:17.069Z,99339.28
2023-02-25T16:26:46.789Z,99359.94
2023-02-25T16:29:19.764Z,99360.75
2023-02-25T16:31:56.203Z,99350.44
2023-02-25T16:34:30.246Z,99327.16
2023-02-25T16:37:13.788Z,99348.56
2023-02-25T16:39:40.641Z,99370.69
2023-02-25T16:42:14.692Z,99360.97
2023-02-25T16:44:42.547Z,99300.88
2023-02-25T16:47:33.143Z,99256.75
2023-02-25T16:50:02.192Z,99260.25
2023-02-25T16:52:31.211Z,99319.09
2023-02-25T16:54:59.642Z,99343.19
2023-02-25T16:57:26.669Z,99331.09
2023-02-25T17:00:20.165Z,99364.88
2023-02-25T17:02:51.156Z,99339.41
2023-02-25T17:05:24.171Z,99364.63
2023-02-25T17:07:59.852Z,99301.72
2023-02-25T17:10:31.577Z,99358.50
2023-02-25T17:12:58.425Z,99371.00
2023-02-25T17:15:30.008Z,99377.41
2023-02-25T17:18:02.537Z,99372.44
2023-02-25T17:20:29.321Z,99392.28
2023-02-25T17:22:57.190Z,99337.84
2023-02-25T17:25:27.952Z,99349.44
2023-02-25T17:27:54.856Z,99383.38
2023-02-25T17:30:42.440Z,99381.94
2023-02-25T17:33:22.764Z,99378.03
2023-02-25T17:35:52.314Z,99356.59
2023-02-25T17:38:21.232Z,99385.28
2023-02-25T17:40:48.152Z,99351.13
2023-02-25T17:43:20.007Z,99384.44
2023-02-25T17:45:50.260Z,99386.09
2023-02-25T17:48:25.200Z,99368.56
2023-02-25T17:50:53.561Z,99363.31
2023-02-25T17:53:35.026Z,99404.47
2023-02-25T17:56:09.953Z,99393.72
2023-02-25T17:58:37.016Z,99384.09
2023-02-25T18:01:05.901Z,99367.84
2023-02-25T18:03:45.742Z,99394.94
2023-02-25T18:06:31.539Z,99401.41
2023-02-25T18:09:00.033Z,99337.59
2023-02-25T18:11:33.875Z,99370.00
2023-02-25T18:14:02.664Z,99404.25
2023-02-25T18:16:40.668Z,99399.63
2023-02-25T18:19:36.183Z,99379.50
2023-02-25T18:22:03.782Z,99401.03
2023-02-25T18:24:34.963Z,99437.97
2023-02-25T18:27:07.928Z,99428.22
2023-02-25T18:29:34.769Z,99426.56
2023-02-25T18:32:01.766Z,99396.25
2023-02-25T18:34:28.819Z,99435.47
2023-02-25T18:36:55.623Z,99425.22
2023-02-25T18:39:22.405Z,99415.59
2023-02-25T18:41:49.322Z,99448.72
2023-02-25T18:44:16.334Z,99439.84
2023-02-25T18:46:43.093Z,99421.59
2023-02-25T18:49:09.988Z,99446.47
2023-02-25T18:51:36.743Z,99433.19
2023-02-25T18:54:03.645Z,99395.09
2023-02-25T18:56:30.549Z,99435.69
2023-02-25T18:58:58.050Z,99441.06
2023-02-25T19:01:28.916Z,99423.13
2023-02-25T19:04:00.100Z,99440.03
2023-02-25T19:06:32.164Z,99388.97
2023-02-25T19:08:58.983Z,99437.69
2023-02-25T19:11:29.143Z,99438.94
2023-02-25T19:13:56.332Z,99437.47
2023-02-25T19:16:23.734Z,99430.69
2023-02-25T19:18:50.858Z,99434.84
2023-02-25T19:21:19.253Z,99421.88
2023-02-25T19:23:46.324Z,99417.28
2023-02-25T19:26:13.288Z,99424.81
2023-02-25T19:28:40.050Z,99417.44
2023-02-25T19:31:07.269Z,99452.16
2023-02-25T19:33:35.675Z,99413.22
2023-02-25T19:36:03.656Z,99455.34
2023-02-25T19:38:30.547Z,99458.94
2023-02-25T19:41:02.453Z,99350.66
2023-02-25T19:43:30.586Z,99438.75
2023-02-25T19:45:57.438Z,99456.84
2023-02-25T19:48:24.579Z,99458.50
2023-02-25T19:50:51.392Z,99456.53
2023-02-25T19:53:18.315Z,99462.44
2023-02-25T19:55:45.209Z,99457.69
2023-02-25T19:58:12.026Z,99439.81
2023-02-25T20:00:40.216Z,99431.44
2023-02-25T20:03:07.722Z,99469.94
2023-02-25T20:05:35.004Z,99452.16
2023-02-25T20:08:02.622Z,99334.00
2023-02-25T20:10:29.521Z,99445.09
2023-02-25T20:12:58.996Z,99433.78
2023-02-25T20:15:25.936Z,99441.88
2023-02-25T20:17:55.189Z,99412.88
2023-02-25T20:20:23.024Z,99432.28
2023-02-25T20:22:49.946Z,99429.28
2023-02-25T20:25:16.805Z,99411.66
2023-02-25T20:27:43.851Z,99444.03
2023-02-25T20:30:15.110Z,99425.81
2023-02-25T20:32:43.693Z,99427.81
2023-02-25T20:35:16.052Z,99480.66
2023-02-25T20:37:48.056Z,99444.75
2023-02-25T20:40:14.987Z,99446.22
2023-02-25T20:42:41.920Z,99484.31
2023-02-25T20:45:13.652Z,99393.69
2023-02-25T20:47:40.628Z,99469.69
2023-02-25T20:50:08.414Z,99480.47
2023-02-25T20:52:35.329Z,99434.06
2023-02-25T20:55:02.197Z,99488.25
2023-02-25T20:57:29.199Z,99464.56
2023-02-25T20:59:55.978Z,99505.56
2023-02-25T21:02:22.918Z,99466.91
2023-02-25T21:04:50.581Z,99500.19
2023-02-25T21:07:17.358Z,99464.84
2023-02-25T21:09:44.204Z,99478.09
2023-02-25T21:12:11.218Z,99519.13
2023-02-25T21:14:38.016Z,99525.28
2023-02-25T21:17:09.744Z,99509.19
2023-02-25T21:19:38.888Z,99485.75
2023-02-25T21:22:06.900Z,99505.59
2023-02-25T21:24:34.784Z,99497.06
2023-02-25T21:27:01.779Z,99425.84
2023-02-25T21:29:28.571Z,99501.56
2023-02-25T21:31:55.406Z,99536.22
2023-02-25T21:34:22.360Z,99533.75
2023-02-25T21:36:49.308Z,99457.50
2023-02-25T21:39:16.129Z,99522.78
2023-02-25T21:41:44.795Z,99552.19
2023-02-25T21:44:12.437Z,99548.03
2023-02-25T21:46:39.635Z,99542.34
2023-02-25T21:49:06.581Z,99545.63
2023-02-25T21:51:33.310Z,99549.56
2023-02-25T21:54:00.940Z,99571.38
2023-02-25T21:56:28.396Z,99568.13
2023-02-25T21:58:56.036Z,99547.44
2023-02-25T22:01:28.470Z,99580.88
2023-02-25T22:03:55.385Z,99595.03
2023-02-25T22:06:25.523Z,99536.63
2023-02-25T22:08:52.926Z,99551.22
2023-02-25T22:11:25.117Z,99593.66
2023-02-25T22:13:52.900Z,99584.03
2023-02-25T22:16:20.054Z,99595.66
2023-02-25T22:18:46.891Z,99570.28
2023-02-25T22:21:16.366Z,99539.78
2023-02-25T22:23:43.703Z,99553.97
2023-02-25T22:26:15.533Z,99565.66
2023-02-25T22:28:42.908Z,99581.94
2023-02-25T22:31:11.422Z,99569.81
2023-02-25T22:33:38.519Z,99492.84
2023-02-25T22:36:05.899Z,99565.41
2023-02-25T22:38:37.560Z,99610.59
2023-02-25T22:41:05.541Z,99502.06
2023-02-25T22:43:33.068Z,99592.00
2023-02-25T22:46:10.240Z,99596.75
2023-02-25T22:48:38.661Z,99586.78
2023-02-25T22:51:06.148Z,99606.50
2023-02-25T22:53:33.032Z,99600.47
2023-02-25T22:56:01.808Z,99526.06
2023-02-25T22:58:28.871Z,99549.59
2023-02-25T23:00:55.942Z,99580.56
2023-02-25T23:03:22.964Z,99553.47
2023-02-25T23:05:50.215Z,99624.75
2023-02-25T23:08:17.362Z,99622.22
2023-02-25T23:10:44.471Z,99619.75
2023-02-25T23:13:11.665Z,99528.09
2023-02-25T23:15:39.728Z,99502.06
2023-02-25T23:18:08.785Z,99613.94
2023-02-25T23:20:37.208Z,99559.03
2023-02-25T23:23:05.177Z,99607.28
2023-02-25T23:25:32.675Z,99605.91
2023-02-25T23:28:00.692Z,99567.69
2023-02-25T23:30:27.849Z,99602.03
2023-02-25T23:32:54.840Z,99561.88
2023-02-25T23:35:21.681Z,99586.06
2023-02-25T23:37:48.707Z,99587.16
2023-02-25T23:40:16.204Z,99577.25
2023-02-25T23:42:43.382Z,99588.59
2023-02-25T23:45:12.033Z,99559.81
2023-02-25T23:47:41.428Z,99572.91
2023-02-25T23:50:15.761Z,99616.44
2023-02-25T23:52:43.766Z,99581.53
2023-02-25T23:55:11.988Z,99618.09
2023-02-25T23:57:38.887Z,99633.09
